createdAt,value
2023-03-28T00:00:01.139Z,30.35
2023-03-28T00:01:00.826Z,25.00
2023-03-28T00:02:00.818Z,30.41
2023-03-28T00:03:00.864Z,29.94
2023-03-28T00:04:00.863Z,29.81
2023-03-28T00:05:00.844Z,30.20
2023-03-28T00:06:01.134Z,31.53
2023-03-28T00:07:00.838Z,27.61
2023-03-28T00:08:00.847Z,28.48
2023-03-28T00:09:00.919Z,28.38
2023-03-28T00:10:00.853Z,26.87
2023-03-28T00:11:00.850Z,28.95
2023-03-28T00:12:00.857Z,28.98
2023-03-28T00:13:00.852Z,30.27
2023-03-28T00:14:01.085Z,26.22
2023-03-28T00:15:01.094Z,26.82
2023-03-28T00:16:01.220Z,27.39
2023-03-28T00:17:00.856Z,28.98
2023-03-28T00:18:00.919Z,29.57
2023-03-28T00:19:00.858Z,29.50
2023-03-28T00:20:00.863Z,26.14
2023-03-28T00:21:00.874Z,26.42
2023-03-28T00:22:00.887Z,28.30
2023-03-28T00:23:00.882Z,28.47
2023-03-28T00:24:00.893Z,27.22
2023-03-28T00:25:00.886Z,28.13
2023-03-28T00:26:00.993Z,27.58
2023-03-28T00:27:00.903Z,27.59
2023-03-28T00:28:00.904Z,28.11
2023-03-28T00:29:00.918Z,26.61
2023-03-28T00:30:01.105Z,31.50
2023-03-28T00:31:00.926Z,31.23
2023-03-28T00:32:00.922Z,33.83
2023-03-28T00:33:00.982Z,32.48
2023-03-28T00:34:00.936Z,30.11
2023-03-28T00:35:00.943Z,28.87
2023-03-28T00:36:01.195Z,27.76
2023-03-28T00:37:00.951Z,29.54
2023-03-28T00:38:00.958Z,29.97
2023-03-28T00:39:00.959Z,29.81
2023-03-28T00:40:00.959Z,31.13
2023-03-28T00:41:00.974Z,31.78
2023-03-28T00:42:00.976Z,27.98
2023-03-28T00:43:00.978Z,30.33
2023-03-28T00:44:00.977Z,30.70
2023-03-28T00:45:01.058Z,30.08
2023-03-28T00:46:08.959Z,30.11
2023-03-28T00:47:01.971Z,30.36
2023-03-28T00:48:01.254Z,30.06
2023-03-28T00:49:00.872Z,31.32
2023-03-28T00:50:00.856Z,29.80
2023-03-28T00:51:00.824Z,29.39
2023-03-28T00:52:00.804Z,31.77
2023-03-28T00:53:00.783Z,27.51
2023-03-28T00:54:00.739Z,26.84
2023-03-28T00:55:00.701Z,29.07
2023-03-28T00:56:00.843Z,30.66
2023-03-28T00:57:00.669Z,26.53
2023-03-28T00:58:00.652Z,32.11
2023-03-28T00:59:00.577Z,32.13
2023-03-28T01:00:00.593Z,27.43
2023-03-28T01:01:00.594Z,28.90
2023-03-28T01:02:00.532Z,27.43
2023-03-28T01:03:00.633Z,30.55
2023-03-28T01:04:00.434Z,31.72
2023-03-28T01:05:00.437Z,29.18
2023-03-28T01:06:00.547Z,25.60
2023-03-28T01:07:00.399Z,29.32
2023-03-28T01:08:00.409Z,27.63
2023-03-28T01:09:00.401Z,25.91
2023-03-28T01:10:00.408Z,29.18
2023-03-28T01:11:00.406Z,29.24
2023-03-28T01:12:00.451Z,27.32
2023-03-28T01:13:00.413Z,28.84
2023-03-28T01:14:00.403Z,28.18
2023-03-28T01:15:00.472Z,30.24
2023-03-28T01:16:00.785Z,28.35
2023-03-28T01:17:00.418Z,30.67
2023-03-28T01:18:00.455Z,27.84
2023-03-28T01:19:00.436Z,25.99
2023-03-28T01:20:00.428Z,27.46
2023-03-28T01:21:00.428Z,29.96
2023-03-28T01:22:00.424Z,27.70
2023-03-28T01:23:00.427Z,31.09
2023-03-28T01:24:11.157Z,29.91
2023-03-28T01:25:01.413Z,30.07
2023-03-28T01:26:00.503Z,30.03
2023-03-28T01:27:00.340Z,30.38
2023-03-28T01:28:00.312Z,23.90
2023-03-28T01:29:00.291Z,28.61
2023-03-28T01:30:00.256Z,28.40
2023-03-28T01:31:00.242Z,30.82
2023-03-28T01:32:00.289Z,26.78
2023-03-28T01:33:00.259Z,31.50
2023-03-28T01:34:00.162Z,27.43
2023-03-28T01:35:00.135Z,30.02
2023-03-28T01:36:00.338Z,29.49
2023-03-28T01:37:00.114Z,31.02
2023-03-28T01:38:00.076Z,29.87
2023-03-28T01:39:00.005Z,28.47
2023-03-28T01:39:59.995Z,26.86
2023-03-28T01:40:59.960Z,29.40
2023-03-28T01:41:59.937Z,26.63
2023-03-28T01:42:59.912Z,28.98
2023-03-28T01:43:59.888Z,28.94
2023-03-28T01:44:59.850Z,26.73
2023-03-28T01:46:00.055Z,29.10
2023-03-28T01:46:59.821Z,25.79
2023-03-28T01:47:59.848Z,25.00
2023-03-28T01:48:59.799Z,30.75
2023-03-28T01:49:59.793Z,31.10
2023-03-28T01:50:59.766Z,26.74
2023-03-28T01:51:59.746Z,28.17
2023-03-28T01:52:59.744Z,26.48
2023-03-28T01:53:59.716Z,28.40
2023-03-28T01:54:59.696Z,29.76
2023-03-28T01:55:59.804Z,29.31
2023-03-28T01:56:59.710Z,28.75
2023-03-28T01:57:59.650Z,29.34
2023-03-28T01:58:59.634Z,28.60
2023-03-28T01:59:59.606Z,30.77
2023-03-28T02:00:59.618Z,25.96
2023-03-28T02:01:59.619Z,27.14
2023-03-28T02:02:59.676Z,31.40
2023-03-28T02:03:59.581Z,30.43
2023-03-28T02:04:59.540Z,27.20
2023-03-28T02:05:59.702Z,25.57
2023-03-28T02:06:59.502Z,27.94
2023-03-28T02:07:59.483Z,27.51
2023-03-28T02:08:59.464Z,29.18
2023-03-28T02:09:59.436Z,29.29
2023-03-28T02:10:59.417Z,27.32
2023-03-28T02:11:59.395Z,26.42
2023-03-28T02:12:59.376Z,27.58
2023-03-28T02:13:59.344Z,26.34
2023-03-28T02:14:59.334Z,25.95
2023-03-28T02:15:59.594Z,26.67
2023-03-28T02:16:59.280Z,29.13
2023-03-28T02:17:59.300Z,27.89
2023-03-28T02:18:59.241Z,29.03
2023-03-28T02:19:59.236Z,25.00
2023-03-28T02:20:59.208Z,28.40
2023-03-28T02:21:59.189Z,29.48
2023-03-28T02:22:59.170Z,29.07
2023-03-28T02:23:59.153Z,26.85
2023-03-28T02:24:59.148Z,29.40
2023-03-28T02:25:59.297Z,26.54
2023-03-28T02:26:59.114Z,26.48
2023-03-28T02:27:59.083Z,29.88
2023-03-28T02:28:59.064Z,30.15
2023-03-28T02:29:59.056Z,29.65
2023-03-28T02:30:59.047Z,30.46
2023-03-28T02:31:59.038Z,28.64
2023-03-28T02:32:59.035Z,27.31
2023-03-28T02:33:58.991Z,30.14
2023-03-28T02:34:58.958Z,27.24
2023-03-28T02:35:59.099Z,28.38
2023-03-28T02:36:58.911Z,29.98
2023-03-28T02:37:58.891Z,31.04
2023-03-28T02:38:58.864Z,30.31
2023-03-28T02:39:58.851Z,28.07
2023-03-28T02:40:58.838Z,30.43
2023-03-28T02:41:58.822Z,27.58
2023-03-28T02:42:58.800Z,28.25
2023-03-28T02:43:58.779Z,28.54
2023-03-28T02:44:58.754Z,29.85
2023-03-28T02:45:58.981Z,31.09
2023-03-28T02:47:01.077Z,28.27
2023-03-28T02:47:58.812Z,26.99
2023-03-28T02:48:58.784Z,26.55
2023-03-28T02:49:58.774Z,26.86
2023-03-28T02:50:58.748Z,25.00
2023-03-28T02:51:58.733Z,26.68
2023-03-28T02:52:58.731Z,26.54
2023-03-28T02:53:58.701Z,26.86
2023-03-28T02:54:58.693Z,27.00
2023-03-28T02:55:58.868Z,26.36
2023-03-28T02:56:58.712Z,26.34
2023-03-28T02:57:58.644Z,26.56
2023-03-28T02:58:58.616Z,28.28
2023-03-28T02:59:58.617Z,28.45
2023-03-28T03:00:58.593Z,31.88
2023-03-28T03:01:58.577Z,26.30
2023-03-28T03:02:58.613Z,25.98
2023-03-28T03:03:58.623Z,26.82
2023-03-28T03:04:58.526Z,28.02
2023-03-28T03:05:58.687Z,27.87
2023-03-28T03:06:58.488Z,29.57
2023-03-28T03:07:58.463Z,27.97
2023-03-28T03:08:58.451Z,27.84
2023-03-28T03:09:58.435Z,27.84
2023-03-28T03:10:58.422Z,26.33
2023-03-28T03:11:58.398Z,25.54
2023-03-28T03:12:58.379Z,27.02
2023-03-28T03:13:58.371Z,25.00
2023-03-28T03:14:58.347Z,27.47
2023-03-28T03:15:58.690Z,25.82
2023-03-28T03:16:58.328Z,27.56
2023-03-28T03:17:58.340Z,30.12
2023-03-28T03:18:58.321Z,29.00
2023-03-28T03:19:58.288Z,26.80
2023-03-28T03:20:58.268Z,26.43
2023-03-28T03:21:58.260Z,27.80
2023-03-28T03:22:58.242Z,26.86
2023-03-28T03:23:58.224Z,27.21
2023-03-28T03:24:58.213Z,26.87
2023-03-28T03:25:58.364Z,27.70
2023-03-28T03:26:58.186Z,30.26
2023-03-28T03:27:58.157Z,29.83
2023-03-28T03:28:58.213Z,28.98
2023-03-28T03:29:58.144Z,26.98
2023-03-28T03:30:58.140Z,26.70
2023-03-28T03:31:58.110Z,28.17
2023-03-28T03:32:58.114Z,27.33
2023-03-28T03:33:58.068Z,29.05
2023-03-28T03:34:58.057Z,26.71
2023-03-28T03:35:58.399Z,25.91
2023-03-28T03:36:58.018Z,30.65
2023-03-28T03:37:58.016Z,26.22
2023-03-28T03:38:57.995Z,26.72
2023-03-28T03:39:58.008Z,27.73
2023-03-28T03:40:57.985Z,27.56
2023-03-28T03:41:57.959Z,32.17
2023-03-28T03:42:57.947Z,27.97
2023-03-28T03:43:57.951Z,27.37
2023-03-28T03:44:57.936Z,27.59
2023-03-28T03:45:58.150Z,25.56
2023-03-28T03:46:58.156Z,27.92
2023-03-28T03:47:57.962Z,27.45
2023-03-28T03:48:57.891Z,26.50
2023-03-28T03:49:57.886Z,27.27
2023-03-28T03:50:57.880Z,28.67
2023-03-28T03:51:57.873Z,26.82
2023-03-28T03:52:57.867Z,25.64
2023-03-28T03:53:57.849Z,29.59
2023-03-28T03:54:57.832Z,26.74
2023-03-28T03:55:57.948Z,29.89
2023-03-28T03:56:57.842Z,27.35
2023-03-28T03:57:57.805Z,27.93
2023-03-28T03:58:57.800Z,30.02
2023-03-28T03:59:57.801Z,27.35
2023-03-28T04:00:57.802Z,29.09
2023-03-28T04:01:57.858Z,26.02
2023-03-28T04:02:57.773Z,27.75
2023-03-28T04:03:57.768Z,27.60
2023-03-28T04:04:57.752Z,26.03
2023-03-28T04:05:58.036Z,26.45
2023-03-28T04:06:57.743Z,29.26
2023-03-28T04:07:57.715Z,25.95
2023-03-28T04:08:57.725Z,29.34
2023-03-28T04:09:57.686Z,25.40
2023-03-28T04:10:57.685Z,28.00
2023-03-28T04:11:57.666Z,29.63
2023-03-28T04:12:57.672Z,27.77
2023-03-28T04:13:57.659Z,28.36
2023-03-28T04:14:57.648Z,31.72
2023-03-28T04:15:57.920Z,26.12
2023-03-28T04:16:57.627Z,25.59
2023-03-28T04:17:57.648Z,30.27
2023-03-28T04:18:57.611Z,27.99
2023-03-28T04:19:57.602Z,27.04
2023-03-28T04:20:57.602Z,28.55
2023-03-28T04:21:57.754Z,27.94
2023-03-28T04:22:57.563Z,28.11
2023-03-28T04:23:57.550Z,26.24
2023-03-28T04:24:57.553Z,27.21
2023-03-28T04:25:57.724Z,26.71
2023-03-28T04:26:57.524Z,25.29
2023-03-28T04:27:57.514Z,27.67
2023-03-28T04:28:57.506Z,27.82
2023-03-28T04:29:57.496Z,29.97
2023-03-28T04:30:57.483Z,25.72
2023-03-28T04:31:57.553Z,28.54
2023-03-28T04:32:57.498Z,31.42
2023-03-28T04:33:57.461Z,28.76
2023-03-28T04:34:57.438Z,27.20
2023-03-28T04:35:57.651Z,28.05
2023-03-28T04:36:57.416Z,28.75
2023-03-28T04:37:57.409Z,25.00
2023-03-28T04:38:57.400Z,29.07
2023-03-28T04:39:57.396Z,28.80
2023-03-28T04:40:57.385Z,26.42
2023-03-28T04:41:57.430Z,25.00
2023-03-28T04:42:57.374Z,28.03
2023-03-28T04:43:57.360Z,28.61
2023-03-28T04:44:57.364Z,29.76
2023-03-28T04:45:57.434Z,28.07
2023-03-28T04:46:57.330Z,26.64
2023-03-28T04:47:57.346Z,28.19
2023-03-28T04:48:57.309Z,25.68
2023-03-28T04:49:57.298Z,27.61
2023-03-28T04:50:57.302Z,28.83
2023-03-28T04:51:57.275Z,27.91
2023-03-28T04:52:57.267Z,29.70
2023-03-28T04:53:57.258Z,25.66
2023-03-28T04:54:57.239Z,26.22
2023-03-28T04:55:57.282Z,27.17
2023-03-28T04:56:57.277Z,29.91
2023-03-28T04:57:57.212Z,27.77
2023-03-28T04:58:57.199Z,26.61
2023-03-28T04:59:57.186Z,28.09
2023-03-28T05:00:57.250Z,25.94
2023-03-28T05:01:57.347Z,27.17
2023-03-28T05:02:57.251Z,33.20
2023-03-28T05:03:57.162Z,28.06
2023-03-28T05:04:57.152Z,29.49
2023-03-28T05:05:57.139Z,30.26
2023-03-28T05:06:57.126Z,26.97
2023-03-28T05:07:57.109Z,29.38
2023-03-28T05:08:57.106Z,29.37
2023-03-28T05:09:57.088Z,29.89
2023-03-28T05:10:57.116Z,29.08
2023-03-28T05:11:57.065Z,26.87
2023-03-28T05:12:57.054Z,26.00
2023-03-28T05:13:57.044Z,29.83
2023-03-28T05:14:57.025Z,27.21
2023-03-28T05:15:57.037Z,28.26
2023-03-28T05:16:57.011Z,28.10
2023-03-28T05:17:57.053Z,26.29
2023-03-28T05:18:57.000Z,28.52
2023-03-28T05:19:56.988Z,28.85
2023-03-28T05:20:57.123Z,28.87
2023-03-28T05:21:56.972Z,26.72
2023-03-28T05:22:56.966Z,28.53
2023-03-28T05:23:56.949Z,26.67
2023-03-28T05:24:56.950Z,29.15
2023-03-28T05:25:56.936Z,33.49
2023-03-28T05:26:56.925Z,39.98
2023-03-28T05:27:56.922Z,46.93
2023-03-28T05:28:56.889Z,51.31
2023-03-28T05:29:56.867Z,55.32
2023-03-28T05:30:56.845Z,57.62
2023-03-28T05:31:56.912Z,61.94
2023-03-28T05:32:56.841Z,63.24
2023-03-28T05:33:57.314Z,72.34
2023-03-28T05:34:56.738Z,81.36
2023-03-28T05:35:56.728Z,97.13
2023-03-28T05:36:56.664Z,101.92
2023-03-28T05:37:56.663Z,131.61
2023-03-28T05:38:56.695Z,152.26
2023-03-28T05:39:56.670Z,159.87
2023-03-28T05:40:56.708Z,153.79
2023-03-28T05:41:56.698Z,166.20
2023-03-28T05:42:56.721Z,169.91
2023-03-28T05:43:56.733Z,180.04
2023-03-28T05:44:56.735Z,187.99
2023-03-28T05:45:56.809Z,192.27
2023-03-28T05:46:56.782Z,195.94
2023-03-28T05:47:56.856Z,203.60
2023-03-28T05:48:56.796Z,207.71
2023-03-28T05:49:56.818Z,214.24
2023-03-28T05:50:56.819Z,221.75
2023-03-28T05:51:56.820Z,227.20
2023-03-28T05:52:56.821Z,234.27
2023-03-28T05:53:56.837Z,242.10
2023-03-28T05:54:56.859Z,250.00
2023-03-28T05:55:56.884Z,247.06
2023-03-28T05:56:56.940Z,250.00
2023-03-28T05:57:56.930Z,250.00
2023-03-28T05:58:57.014Z,249.73
2023-03-28T05:59:56.969Z,249.13
2023-03-28T06:00:56.993Z,250.00
2023-03-28T06:01:57.042Z,249.46
2023-03-28T06:02:57.085Z,249.48
2023-03-28T06:03:57.112Z,249.83
2023-03-28T06:04:57.199Z,249.53
2023-03-28T06:05:57.116Z,249.17
2023-03-28T06:06:57.137Z,249.75
2023-03-28T06:07:57.150Z,250.00
2023-03-28T06:08:57.170Z,249.18
2023-03-28T06:09:57.167Z,250.12
2023-03-28T06:10:57.266Z,249.11
2023-03-28T06:11:57.200Z,246.95
2023-03-28T06:12:57.221Z,249.58
2023-03-28T06:13:57.240Z,249.92
2023-03-28T06:14:57.256Z,249.28
2023-03-28T06:15:57.287Z,249.76
2023-03-28T06:16:57.351Z,249.42
2023-03-28T06:17:57.339Z,250.71
2023-03-28T06:19:10.405Z,253.33
2023-03-28T06:19:58.331Z,253.48
2023-03-28T06:20:57.261Z,252.58
2023-03-28T06:21:57.265Z,250.06
2023-03-28T06:22:57.135Z,241.95
2023-03-28T06:23:57.083Z,245.41
2023-03-28T06:24:57.047Z,244.19
2023-03-28T06:25:56.987Z,241.70
2023-03-28T06:26:56.939Z,240.66
2023-03-28T06:27:56.898Z,243.30
2023-03-28T06:28:56.879Z,240.35
2023-03-28T06:29:56.889Z,241.28
2023-03-28T06:30:56.923Z,240.87
2023-03-28T06:31:56.874Z,239.96
2023-03-28T06:32:56.935Z,238.34
2023-03-28T06:33:56.804Z,240.46
2023-03-28T06:34:56.777Z,239.39
2023-03-28T06:35:56.762Z,238.46
2023-03-28T06:36:56.677Z,239.37
2023-03-28T06:37:56.654Z,239.27
2023-03-28T06:38:56.644Z,239.58
2023-03-28T06:39:56.633Z,240.85
2023-03-28T06:40:56.567Z,240.11
2023-03-28T06:41:56.540Z,237.92
2023-03-28T06:42:56.510Z,239.34
2023-03-28T06:43:56.480Z,239.54
2023-03-28T06:44:56.442Z,239.26
2023-03-28T06:45:56.463Z,238.75
2023-03-28T06:46:57.369Z,238.85
2023-03-28T06:47:56.372Z,238.69
2023-03-28T06:48:56.293Z,238.63
2023-03-28T06:49:56.250Z,236.81
2023-03-28T06:50:56.210Z,235.56
2023-03-28T06:51:56.179Z,236.03
2023-03-28T06:52:56.141Z,235.03
2023-03-28T06:53:56.103Z,233.15
2023-03-28T06:54:56.064Z,230.85
2023-03-28T06:55:56.029Z,230.39
2023-03-28T06:56:56.055Z,231.35
2023-03-28T06:57:55.949Z,232.07
2023-03-28T06:58:55.930Z,232.10
2023-03-28T06:59:55.883Z,232.70
2023-03-28T07:00:55.850Z,231.24
2023-03-28T07:01:55.835Z,231.05
2023-03-28T07:02:55.796Z,230.36
2023-03-28T07:03:55.855Z,229.02
2023-03-28T07:04:55.712Z,230.42
2023-03-28T07:05:55.669Z,227.90
2023-03-28T07:06:55.633Z,224.95
2023-03-28T07:07:55.595Z,224.62
2023-03-28T07:08:55.549Z,224.21
2023-03-28T07:09:55.508Z,221.46
2023-03-28T07:10:56.347Z,222.52
2023-03-28T07:11:55.480Z,223.01
2023-03-28T07:12:55.456Z,221.52
2023-03-28T07:13:55.445Z,221.30
2023-03-28T07:14:55.415Z,220.81
2023-03-28T07:15:55.400Z,219.49
2023-03-28T07:16:55.455Z,221.05
2023-03-28T07:17:55.416Z,219.80
2023-03-28T07:18:55.337Z,226.23
2023-03-28T07:19:55.314Z,223.85
2023-03-28T07:21:03.906Z,225.88
2023-03-28T07:21:56.256Z,225.98
2023-03-28T07:22:55.223Z,226.01
2023-03-28T07:23:55.176Z,225.65
2023-03-28T07:24:55.140Z,229.88
2023-03-28T07:25:55.113Z,250.89
2023-03-28T07:27:07.957Z,249.40
2023-03-28T07:27:55.036Z,249.52
2023-03-28T07:28:54.972Z,249.92
2023-03-28T07:29:54.937Z,251.08
2023-03-28T07:30:54.895Z,254.32
2023-03-28T07:31:54.885Z,268.50
2023-03-28T07:33:04.551Z,256.12
2023-03-28T07:33:56.393Z,255.50
2023-03-28T07:34:54.695Z,255.19
2023-03-28T07:35:54.699Z,254.67
2023-03-28T07:36:54.598Z,255.54
2023-03-28T07:37:54.559Z,257.54
2023-03-28T07:38:54.504Z,255.98
2023-03-28T07:39:54.444Z,247.92
2023-03-28T07:40:54.394Z,248.18
2023-03-28T07:41:54.341Z,248.66
2023-03-28T07:42:54.324Z,248.61
2023-03-28T07:43:54.326Z,250.00
2023-03-28T07:44:54.342Z,247.74
2023-03-28T07:45:54.361Z,248.40
2023-03-28T07:46:54.372Z,247.98
2023-03-28T07:47:54.461Z,248.63
2023-03-28T07:48:54.373Z,250.00
2023-03-28T07:49:54.385Z,249.70
2023-03-28T07:50:54.385Z,249.84
2023-03-28T07:51:54.390Z,249.70
2023-03-28T07:52:54.401Z,250.00
2023-03-28T07:53:54.404Z,249.84
2023-03-28T07:54:54.416Z,248.53
2023-03-28T07:55:56.046Z,249.62
2023-03-28T07:56:54.477Z,250.00
2023-03-28T07:57:54.424Z,249.72
2023-03-28T07:58:54.430Z,249.58
2023-03-28T07:59:54.427Z,247.99
2023-03-28T08:00:54.438Z,249.85
2023-03-28T08:01:54.438Z,248.77
2023-03-28T08:02:54.464Z,249.41
2023-03-28T08:03:54.465Z,248.96
2023-03-28T08:04:54.421Z,249.68
2023-03-28T08:05:54.460Z,250.00
2023-03-28T08:06:54.430Z,249.97
2023-03-28T08:07:54.420Z,250.00
2023-03-28T08:08:54.420Z,249.42
2023-03-28T08:09:55.717Z,249.56
2023-03-28T08:10:54.531Z,249.39
2023-03-28T08:11:54.560Z,242.20
2023-03-28T08:12:54.516Z,212.76
2023-03-28T08:13:54.529Z,175.00
2023-03-28T08:14:54.526Z,148.62
2023-03-28T08:15:55.327Z,110.49
2023-03-28T08:16:54.885Z,109.32
2023-03-28T08:17:54.511Z,118.59
2023-03-28T08:19:09.152Z,126.70
2023-03-28T08:19:55.413Z,126.97
2023-03-28T08:20:54.386Z,128.20
2023-03-28T08:21:54.357Z,131.32
2023-03-28T08:22:54.306Z,136.30
2023-03-28T08:23:54.267Z,131.74
2023-03-28T08:24:54.223Z,132.92
2023-03-28T08:25:54.205Z,136.58
2023-03-28T08:26:54.150Z,137.10
2023-03-28T08:27:54.104Z,138.37
2023-03-28T08:28:54.065Z,106.58
2023-03-28T08:29:54.044Z,64.19
2023-03-28T08:30:54.037Z,52.63
2023-03-28T08:31:53.985Z,52.94
2023-03-28T08:32:54.017Z,55.47
2023-03-28T08:33:53.923Z,68.91
2023-03-28T08:34:53.890Z,85.53
2023-03-28T08:35:53.900Z,92.61
2023-03-28T08:36:53.903Z,97.87
2023-03-28T08:37:53.909Z,102.95
2023-03-28T08:38:53.927Z,108.41
2023-03-28T08:39:54.039Z,109.79
2023-03-28T08:40:53.992Z,112.45
2023-03-28T08:41:54.026Z,114.22
2023-03-28T08:42:54.071Z,118.20
2023-03-28T08:43:54.077Z,119.70
2023-03-28T08:44:54.090Z,123.24
2023-03-28T08:45:54.112Z,126.89
2023-03-28T08:46:54.182Z,126.90
2023-03-28T08:47:54.188Z,129.79
2023-03-28T08:48:54.157Z,131.44
2023-03-28T08:49:54.157Z,133.71
2023-03-28T08:50:54.176Z,135.74
2023-03-28T08:51:54.185Z,139.31
2023-03-28T08:52:54.216Z,140.39
2023-03-28T08:53:54.223Z,141.60
2023-03-28T08:54:54.219Z,144.33
2023-03-28T08:55:54.213Z,145.25
2023-03-28T08:56:54.250Z,147.40
2023-03-28T08:57:54.204Z,149.21
2023-03-28T08:58:54.201Z,152.67
2023-03-28T08:59:54.202Z,154.24
2023-03-28T09:00:54.192Z,161.27
2023-03-28T09:01:54.267Z,160.76
2023-03-28T09:02:54.248Z,162.74
2023-03-28T09:03:54.309Z,164.88
2023-03-28T09:04:56.563Z,167.35
2023-03-28T09:05:55.124Z,167.54
2023-03-28T09:06:54.134Z,168.56
2023-03-28T09:07:54.018Z,170.15
2023-03-28T09:08:53.966Z,172.56
2023-03-28T09:09:53.909Z,177.46
2023-03-28T09:10:53.852Z,179.91
2023-03-28T09:11:53.803Z,180.51
2023-03-28T09:12:53.746Z,183.10
2023-03-28T09:13:53.692Z,183.37
2023-03-28T09:14:53.630Z,184.00
2023-03-28T09:15:53.723Z,186.08
2023-03-28T09:16:53.580Z,186.94
2023-03-28T09:17:53.574Z,190.60
2023-03-28T09:18:53.407Z,189.91
2023-03-28T09:19:53.388Z,187.60
2023-03-28T09:20:53.366Z,186.54
2023-03-28T09:21:59.576Z,188.80
2023-03-28T09:22:54.294Z,188.87
2023-03-28T09:23:53.243Z,188.85
2023-03-28T09:24:53.187Z,188.77
2023-03-28T09:25:53.128Z,188.51
2023-03-28T09:26:53.080Z,189.14
2023-03-28T09:27:53.818Z,189.43
2023-03-28T09:28:52.976Z,191.43
2023-03-28T09:29:52.934Z,193.18
2023-03-28T09:30:52.881Z,195.65
2023-03-28T09:31:52.874Z,195.83
2023-03-28T09:32:52.831Z,198.80
2023-03-28T09:33:52.730Z,199.81
2023-03-28T09:34:52.680Z,200.09
2023-03-28T09:35:52.654Z,201.59
2023-03-28T09:36:54.138Z,202.77
2023-03-28T09:37:52.574Z,204.41
2023-03-28T09:38:52.477Z,204.31
2023-03-28T09:39:52.521Z,207.31
2023-03-28T09:40:52.363Z,206.55
2023-03-28T09:41:52.326Z,207.43
2023-03-28T09:42:52.263Z,210.23
2023-03-28T09:43:52.225Z,209.94
2023-03-28T09:44:55.016Z,210.42
2023-03-28T09:45:52.141Z,210.61
2023-03-28T09:46:52.055Z,211.09
2023-03-28T09:47:52.085Z,212.15
2023-03-28T09:48:52.029Z,217.41
2023-03-28T09:50:02.237Z,222.53
2023-03-28T09:50:52.854Z,211.07
2023-03-28T09:51:51.786Z,213.07
2023-03-28T09:52:51.739Z,216.99
2023-03-28T09:53:51.702Z,224.21
2023-03-28T09:54:51.636Z,234.12
2023-03-28T09:56:03.256Z,237.69
2023-03-28T09:56:52.552Z,237.84
2023-03-28T09:57:51.463Z,237.89
2023-03-28T09:58:51.426Z,237.94
2023-03-28T09:59:51.367Z,238.41
2023-03-28T10:00:51.354Z,238.22
2023-03-28T10:01:51.298Z,240.03
2023-03-28T10:02:51.236Z,243.26
2023-03-28T10:03:51.156Z,248.23
2023-03-28T10:04:51.223Z,248.90
2023-03-28T10:05:51.046Z,247.87
2023-03-28T10:06:50.992Z,245.51
2023-03-28T10:07:50.936Z,245.31
2023-03-28T10:08:50.903Z,243.28
2023-03-28T10:09:50.861Z,242.37
2023-03-28T10:10:52.565Z,238.95
2023-03-28T10:11:50.747Z,237.61
2023-03-28T10:12:50.693Z,235.52
2023-03-28T10:13:50.652Z,235.85
2023-03-28T10:14:50.608Z,235.61
2023-03-28T10:15:50.685Z,234.96
2023-03-28T10:16:50.502Z,235.28
2023-03-28T10:17:51.394Z,235.02
2023-03-28T10:18:50.416Z,235.03
2023-03-28T10:19:50.377Z,234.63
2023-03-28T10:20:50.341Z,231.53
2023-03-28T10:21:50.289Z,232.92
2023-03-28T10:22:50.259Z,232.03
2023-03-28T10:23:50.216Z,231.05
2023-03-28T10:24:50.167Z,230.39
2023-03-28T10:25:50.114Z,230.90
2023-03-28T10:26:50.072Z,231.56
2023-03-28T10:27:50.030Z,228.61
2023-03-28T10:28:49.989Z,228.12
2023-03-28T10:29:49.982Z,229.12
2023-03-28T10:30:49.943Z,229.91
2023-03-28T10:31:49.948Z,229.53
2023-03-28T10:32:49.870Z,228.77
2023-03-28T10:33:49.788Z,230.43
2023-03-28T10:34:49.750Z,230.17
2023-03-28T10:35:49.760Z,229.26
2023-03-28T10:36:49.679Z,227.11
2023-03-28T10:37:49.637Z,227.39
2023-03-28T10:38:49.605Z,226.92
2023-03-28T10:39:49.566Z,226.17
2023-03-28T10:40:49.574Z,226.74
2023-03-28T10:41:49.504Z,227.41
2023-03-28T10:42:49.485Z,227.43
2023-03-28T10:43:49.453Z,224.75
2023-03-28T10:44:49.495Z,223.70
2023-03-28T10:45:49.540Z,223.05
2023-03-28T10:46:49.734Z,225.17
2023-03-28T10:47:49.765Z,223.21
2023-03-28T10:48:49.633Z,224.75
2023-03-28T10:49:49.668Z,222.63
2023-03-28T10:50:49.762Z,222.49
2023-03-28T10:51:49.731Z,222.79
2023-03-28T10:52:49.753Z,219.64
2023-03-28T10:53:49.775Z,220.60
2023-03-28T10:54:49.789Z,221.03
2023-03-28T10:55:49.811Z,220.54
2023-03-28T10:56:49.875Z,220.31
2023-03-28T10:57:49.885Z,218.23
2023-03-28T10:58:49.912Z,218.47
2023-03-28T10:59:49.940Z,219.17
2023-03-28T11:00:49.980Z,215.41
2023-03-28T11:01:50.087Z,217.58
2023-03-28T11:02:50.132Z,217.41
2023-03-28T11:03:50.164Z,217.48
2023-03-28T11:04:50.080Z,216.89
2023-03-28T11:06:01.754Z,215.18
2023-03-28T11:06:51.052Z,215.32
2023-03-28T11:07:50.049Z,215.19
2023-03-28T11:08:49.992Z,215.29
2023-03-28T11:09:49.981Z,213.40
2023-03-28T11:10:49.936Z,212.94
2023-03-28T11:11:49.981Z,213.20
2023-03-28T11:12:55.072Z,211.62
2023-03-28T11:13:49.865Z,211.72
2023-03-28T11:14:49.804Z,211.99
2023-03-28T11:15:50.500Z,211.82
2023-03-28T11:16:49.708Z,210.03
2023-03-28T11:17:50.448Z,209.84
2023-03-28T11:18:49.653Z,209.14
2023-03-28T11:19:49.597Z,209.26
2023-03-28T11:20:49.575Z,208.89
2023-03-28T11:21:49.558Z,209.39
2023-03-28T11:23:02.693Z,208.67
2023-03-28T11:23:50.539Z,208.78
2023-03-28T11:24:49.507Z,208.70
2023-03-28T11:25:49.477Z,207.37
2023-03-28T11:26:49.459Z,207.65
2023-03-28T11:27:49.599Z,206.81
2023-03-28T11:28:49.393Z,207.27
2023-03-28T11:29:49.369Z,205.35
2023-03-28T11:30:49.321Z,204.45
2023-03-28T11:31:49.312Z,202.88
2023-03-28T11:32:49.312Z,203.89
2023-03-28T11:33:49.235Z,203.76
2023-03-28T11:34:49.264Z,203.23
2023-03-28T11:35:49.301Z,204.25
2023-03-28T11:36:49.327Z,202.58
2023-03-28T11:37:49.312Z,203.40
2023-03-28T11:38:49.465Z,202.76
2023-03-28T11:39:49.326Z,203.32
2023-03-28T11:40:49.351Z,201.18
2023-03-28T11:41:49.352Z,200.89
2023-03-28T11:42:49.371Z,201.72
2023-03-28T11:43:49.416Z,200.37
2023-03-28T11:44:49.455Z,200.18
2023-03-28T11:45:52.493Z,198.88
2023-03-28T11:46:49.488Z,201.60
2023-03-28T11:47:49.438Z,197.96
2023-03-28T11:48:49.374Z,198.91
2023-03-28T11:49:49.348Z,198.57
2023-03-28T11:50:49.369Z,196.81
2023-03-28T11:51:49.288Z,198.08
2023-03-28T11:52:49.264Z,195.93
2023-03-28T11:53:49.225Z,193.91
2023-03-28T11:54:49.233Z,195.17
2023-03-28T11:55:49.172Z,194.41
2023-03-28T11:56:49.225Z,194.73
2023-03-28T11:57:49.119Z,193.39
2023-03-28T11:58:49.076Z,193.13
2023-03-28T11:59:49.049Z,192.84
2023-03-28T12:00:49.062Z,191.79
2023-03-28T12:01:49.041Z,193.41
2023-03-28T12:02:49.042Z,193.15
2023-03-28T12:03:48.977Z,193.03
2023-03-28T12:04:48.935Z,191.95
2023-03-28T12:05:48.841Z,192.84
2023-03-28T12:06:59.679Z,191.27
2023-03-28T12:07:48.774Z,191.45
2023-03-28T12:08:48.729Z,191.25
2023-03-28T12:09:48.714Z,191.20
2023-03-28T12:10:48.667Z,190.77
2023-03-28T12:11:48.629Z,190.22
2023-03-28T12:12:48.592Z,190.24
2023-03-28T12:13:55.460Z,188.62
2023-03-28T12:14:49.529Z,188.71
2023-03-28T12:15:48.504Z,188.14
2023-03-28T12:16:48.483Z,187.25
2023-03-28T12:17:48.495Z,186.04
2023-03-28T12:18:48.380Z,186.28
2023-03-28T12:19:48.880Z,188.57
2023-03-28T12:20:48.320Z,186.12
2023-03-28T12:21:48.301Z,184.96
2023-03-28T12:22:48.267Z,183.47
2023-03-28T12:23:48.241Z,184.10
2023-03-28T12:24:48.209Z,182.59
2023-03-28T12:25:48.173Z,183.51
2023-03-28T12:26:48.140Z,184.29
2023-03-28T12:27:48.112Z,182.48
2023-03-28T12:28:48.076Z,180.27
2023-03-28T12:29:48.076Z,179.22
2023-03-28T12:30:48.019Z,180.34
2023-03-28T12:31:47.979Z,179.20
2023-03-28T12:32:47.972Z,179.20
2023-03-28T12:33:47.907Z,179.23
2023-03-28T12:34:47.861Z,177.31
2023-03-28T12:35:47.861Z,178.00
2023-03-28T12:36:47.794Z,176.91
2023-03-28T12:37:47.770Z,177.13
2023-03-28T12:38:47.738Z,176.43